NZCH/CHC METAR and TAF weather

Enter ICAO airport designator
Station Type Date Time Source
NZCH METAR 2020/01/27 16:30 UTC NOAA

NZCH 271630Z AUTO 23005KT 9999 OVC008/// 16/15 Q1011 NOSIG


Station Type Date Time Source
NZCH Decoded METAR 2020/01/27 16:30 UTC NOAA

Christchurch, New Zealand (NZCH) 43-29S 172-33E 30M
Jan 27, 2020 - 11:30 AM EST / 2020.01.27 1630 UTC
Wind: from the SW (230 degrees) at 6 MPH (5 KT):0
Visibility: greater than 7 mile(s):0
Sky conditions: overcast
Temperature: 60 F (16 C)
Dew Point: 59 F (15 C)
Relative Humidity: 93%
Pressure (altimeter): 29.85 in. Hg (1011 hPa)
ob: NZCH 271630Z AUTO 23005KT 9999 OVC008/// 16/15 Q1011 NOSIG
cycle: 16

Station Type Date Time Source
NZCH TAF 2020/01/27 18:06 UTC NOAA

TAF NZCH 271703Z 2718/2818 20010KT 9999 OVC008 PROB30
TEMPO 2718/2722 1500 BR
BECMG 2721/2723 SCT014
BECMG 2803/2805 07010KT
BECMG 2806/2808 BKN014
BECMG 2808/2810 BKN006 PROB40
TEMPO 2812/2817 2000 BR BKN004

Example: see airport list